createdAt,value
2023-01-12T00:02:59.406Z,7.38
2023-01-12T00:06:04.628Z,7.32
2023-01-12T00:09:09.843Z,7.29
2023-01-12T00:12:13.564Z,7.33
2023-01-12T00:15:16.334Z,7.46
2023-01-12T00:18:18.938Z,7.50
2023-01-12T00:21:21.612Z,7.49
2023-01-12T00:24:27.991Z,7.48
2023-01-12T00:27:30.694Z,7.52
2023-01-12T00:30:33.339Z,7.64
2023-01-12T00:33:36.445Z,7.71
2023-01-12T00:36:39.849Z,7.78
2023-01-12T00:39:53.292Z,7.74
2023-01-12T00:43:20.993Z,7.88
2023-01-12T00:46:30.852Z,7.83
2023-01-12T00:49:33.588Z,7.85
2023-01-12T00:52:36.628Z,7.91
2023-01-12T00:55:40.698Z,7.98
2023-01-12T01:05:23.961Z,8.03
2023-01-12T01:08:26.602Z,8.02
2023-01-12T01:11:30.669Z,8.06
2023-01-12T01:14:33.326Z,8.06
2023-01-12T01:17:36.258Z,8.03
2023-01-12T01:20:38.937Z,8.08
2023-01-12T01:23:42.506Z,8.12
2023-01-12T01:26:46.545Z,8.03
2023-01-12T01:29:49.210Z,8.11
2023-01-12T01:32:51.845Z,8.08
2023-01-12T01:35:54.465Z,8.13
2023-01-12T01:38:57.249Z,8.13
2023-01-12T01:42:01.371Z,8.15
2023-01-12T01:45:07.089Z,8.21
2023-01-12T02:01:44.378Z,8.34
2023-01-12T02:04:47.453Z,8.37
2023-01-12T02:07:51.360Z,8.34
2023-01-12T02:10:56.855Z,8.34
2023-01-12T02:14:18.238Z,8.32
2023-01-12T02:17:38.195Z,8.43
2023-01-12T02:20:54.839Z,8.39
2023-01-12T02:24:29.973Z,8.40
2023-01-12T02:27:51.576Z,8.34
2023-01-12T02:31:36.756Z,8.42
2023-01-12T02:34:50.694Z,8.39
2023-01-12T02:38:01.832Z,8.36
2023-01-12T02:41:13.566Z,8.42
2023-01-12T02:44:24.568Z,8.33
2023-01-12T02:47:34.321Z,8.25
2023-01-12T02:50:45.215Z,8.28
2023-01-12T02:53:50.991Z,8.33
2023-01-12T02:56:56.571Z,8.25
2023-01-12T03:00:01.698Z,8.28
2023-01-12T03:03:05.956Z,8.26
2023-01-12T03:06:09.949Z,8.21
2023-01-12T03:09:13.937Z,8.21
2023-01-12T03:12:23.166Z,8.18
2023-01-12T03:15:28.893Z,8.28
2023-01-12T03:18:35.606Z,8.27
2023-01-12T03:21:41.399Z,8.30
2023-01-12T03:24:48.071Z,8.34
2023-01-12T03:27:56.669Z,8.36
2023-01-12T03:31:04.889Z,8.39
2023-01-12T03:34:10.087Z,8.37
2023-01-12T03:37:22.694Z,8.46
2023-01-12T03:40:29.984Z,8.39
2023-01-12T03:43:35.601Z,8.39
2023-01-12T03:46:44.498Z,8.40
2023-01-12T03:49:54.306Z,8.40
2023-01-12T03:52:59.911Z,8.46
2023-01-12T03:56:12.375Z,8.44
2023-01-12T03:59:16.873Z,8.48
2023-01-12T04:02:19.448Z,8.43
2023-01-12T04:05:23.753Z,8.50
2023-01-12T04:08:26.450Z,8.52
2023-01-12T04:11:46.673Z,8.50
2023-01-12T04:14:50.121Z,8.42
2023-01-12T04:17:52.875Z,8.45
2023-01-12T04:20:57.009Z,8.52
2023-01-12T04:23:58.693Z,8.51
2023-01-12T04:27:01.405Z,8.58
2023-01-12T04:30:04.453Z,8.55
2023-01-12T04:33:09.261Z,8.49
2023-01-12T04:36:13.639Z,8.52
2023-01-12T04:39:16.286Z,8.56
2023-01-12T04:42:36.510Z,8.55
2023-01-12T04:45:41.553Z,8.53
2023-01-12T04:48:45.578Z,8.59
2023-01-12T04:51:49.647Z,8.60
2023-01-12T04:54:52.283Z,8.62
2023-01-12T04:57:54.972Z,8.57
2023-01-12T05:00:58.057Z,8.53
2023-01-12T05:04:01.351Z,8.60
2023-01-12T05:07:05.611Z,8.67
2023-01-12T05:10:23.575Z,8.75
2023-01-12T05:13:30.388Z,8.70
2023-01-12T05:16:33.304Z,8.68
2023-01-12T05:19:36.410Z,8.67
2023-01-12T05:22:40.379Z,8.73
2023-01-12T05:25:43.227Z,8.75
2023-01-12T05:28:48.792Z,8.76
2023-01-12T05:31:51.447Z,8.71
2023-01-12T05:34:54.119Z,8.81
2023-01-12T05:37:58.434Z,8.81
2023-01-12T05:41:01.678Z,8.80
2023-01-12T05:44:03.539Z,8.82
2023-01-12T05:47:06.233Z,8.69
2023-01-12T05:50:10.058Z,8.73
2023-01-12T05:53:14.253Z,8.73
2023-01-12T05:56:19.056Z,8.72
2023-01-12T05:59:21.855Z,8.68
2023-01-12T06:02:24.486Z,8.67
2023-01-12T06:05:27.091Z,8.66
2023-01-12T06:08:31.175Z,8.58
2023-01-12T06:11:51.659Z,8.59
2023-01-12T06:14:54.278Z,8.66
2023-01-12T06:17:57.742Z,8.56
2023-01-12T06:21:00.750Z,8.55
2023-01-12T06:24:05.209Z,8.60
2023-01-12T06:27:08.257Z,8.62
2023-01-12T06:30:12.293Z,8.58
2023-01-12T06:33:14.935Z,8.60
2023-01-12T06:36:17.616Z,8.70
2023-01-12T06:39:21.659Z,8.65
2023-01-12T06:42:30.354Z,8.66
2023-01-12T06:45:33.039Z,8.69
2023-01-12T06:48:39.146Z,8.67
2023-01-12T06:51:42.146Z,8.71
2023-01-12T06:54:46.152Z,8.68
2023-01-12T06:57:48.770Z,8.65
2023-01-12T07:00:51.573Z,8.61
2023-01-12T07:03:54.342Z,8.66
2023-01-12T07:06:57.583Z,8.72
2023-01-12T07:10:01.603Z,8.72
2023-01-12T07:13:04.347Z,8.75
2023-01-12T07:16:08.546Z,8.80
2023-01-12T07:19:11.205Z,8.70
2023-01-12T07:22:13.907Z,8.81
2023-01-12T07:25:18.129Z,8.80
2023-01-12T07:28:20.843Z,8.86
2023-01-12T07:31:23.679Z,8.91
2023-01-12T07:34:26.454Z,8.96
2023-01-12T07:37:29.098Z,8.90
2023-01-12T07:40:33.306Z,8.99
2023-01-12T07:43:35.960Z,8.90
2023-01-12T07:46:38.677Z,8.93
2023-01-12T07:49:41.403Z,8.91
2023-01-12T07:52:44.037Z,8.86
2023-01-12T07:55:48.069Z,8.93
2023-01-12T07:58:51.182Z,9.01
2023-01-12T08:01:54.397Z,8.96
2023-01-12T08:04:57.510Z,8.98
2023-01-12T08:08:02.035Z,8.95
2023-01-12T08:11:09.233Z,9.01
2023-01-12T08:14:23.896Z,9.02
2023-01-12T08:17:27.000Z,9.03
2023-01-12T08:20:33.220Z,9.12
2023-01-12T08:23:41.817Z,9.09
2023-01-12T08:26:49.170Z,9.15
2023-01-12T08:29:55.706Z,9.19
2023-01-12T08:33:01.384Z,9.16
2023-01-12T08:36:04.558Z,9.14
2023-01-12T08:39:07.503Z,9.18
2023-01-12T08:42:11.529Z,9.15
2023-01-12T08:45:14.165Z,9.21
2023-01-12T08:48:18.001Z,9.26
2023-01-12T08:51:21.142Z,9.25
2023-01-12T08:54:24.184Z,9.28
2023-01-12T08:57:28.515Z,9.29
2023-01-12T09:00:31.251Z,9.26
2023-01-12T09:03:33.907Z,9.36
2023-01-12T09:06:38.062Z,9.40
2023-01-12T09:09:40.773Z,9.44
2023-01-12T09:12:45.766Z,9.42
2023-01-12T09:16:05.972Z,9.44
2023-01-12T09:19:11.837Z,9.41
2023-01-12T09:22:14.969Z,9.47
2023-01-12T09:25:17.999Z,9.54
2023-01-12T09:28:21.948Z,9.54
2023-01-12T09:31:24.690Z,9.67
2023-01-12T09:34:27.505Z,9.61
2023-01-12T09:37:30.189Z,9.57
2023-01-12T09:40:33.142Z,9.68
2023-01-12T09:43:55.793Z,9.61
2023-01-12T09:46:59.571Z,9.67
2023-01-12T09:50:09.737Z,9.73
2023-01-12T09:53:19.677Z,9.80
2023-01-12T09:56:29.971Z,9.79
2023-01-12T09:59:45.580Z,9.76
2023-01-12T10:02:53.074Z,9.81
2023-01-12T10:05:58.216Z,9.85
2023-01-12T10:09:02.846Z,9.93
2023-01-12T10:12:16.442Z,9.99
2023-01-12T10:15:30.831Z,9.91
2023-01-12T10:18:39.802Z,9.92
2023-01-12T10:21:43.055Z,9.99
2023-01-12T10:24:47.217Z,10.09
2023-01-12T10:27:52.186Z,10.12
2023-01-12T10:30:57.264Z,10.13
2023-01-12T10:34:04.886Z,10.15
2023-01-12T10:37:10.672Z,10.25
2023-01-12T10:40:23.878Z,10.30
2023-01-12T10:43:32.302Z,10.34
2023-01-12T10:46:36.784Z,10.30
2023-01-12T10:49:39.607Z,10.40
2023-01-12T10:52:42.398Z,10.33
2023-01-12T10:55:47.465Z,10.35
2023-01-12T10:58:55.834Z,10.37
2023-01-12T11:02:15.624Z,10.39
2023-01-12T11:05:35.420Z,10.36
2023-01-12T11:08:38.178Z,10.32
2023-01-12T11:11:41.162Z,10.30
2023-01-12T11:14:45.097Z,10.45
2023-01-12T11:18:01.030Z,10.38
2023-01-12T11:21:08.874Z,10.35
2023-01-12T11:24:18.074Z,10.35
2023-01-12T11:27:30.075Z,10.36
2023-01-12T11:30:37.960Z,10.37
2023-01-12T11:33:45.573Z,10.35
2023-01-12T11:36:51.887Z,10.53
2023-01-12T11:40:02.918Z,10.59
2023-01-12T11:43:39.166Z,10.83
2023-01-12T11:46:46.467Z,10.92
2023-01-12T11:49:56.986Z,11.33
2023-01-12T11:52:59.735Z,12.18
2023-01-12T11:56:14.925Z,12.65
2023-01-12T11:59:23.819Z,13.02
2023-01-12T12:02:34.870Z,13.15
2023-01-12T12:05:48.268Z,12.84
2023-01-12T12:09:07.746Z,12.16
2023-01-12T12:12:17.929Z,11.93
2023-01-12T12:15:30.258Z,11.78
2023-01-12T12:18:45.696Z,11.87
2023-01-12T12:21:51.814Z,12.02
2023-01-12T12:25:08.587Z,12.12
2023-01-12T12:28:34.888Z,11.97
2023-01-12T12:32:01.934Z,11.82
2023-01-12T12:35:22.172Z,11.74
2023-01-12T12:38:35.638Z,11.63
2023-01-12T12:41:58.845Z,11.58
2023-01-12T12:45:20.528Z,11.42
2023-01-12T12:48:32.555Z,11.48
2023-01-12T12:51:36.855Z,11.45
2023-01-12T12:54:41.643Z,11.33
2023-01-12T12:58:01.575Z,11.35
2023-01-12T13:01:34.132Z,11.30
2023-01-12T13:05:05.469Z,11.35
2023-01-12T13:08:19.399Z,11.31
2023-01-12T13:11:53.735Z,11.26
2023-01-12T13:15:37.748Z,11.17
2023-01-12T13:19:04.182Z,11.16
2023-01-12T13:22:28.555Z,11.11
2023-01-12T13:25:56.327Z,10.98
2023-01-12T13:29:28.950Z,11.07
2023-01-12T13:33:01.520Z,11.14
2023-01-12T13:36:10.128Z,11.11
2023-01-12T13:39:16.091Z,11.11
2023-01-12T13:42:39.834Z,11.09
2023-01-12T13:45:48.170Z,11.10
2023-01-12T13:48:54.523Z,11.16
2023-01-12T13:52:05.091Z,11.10
2023-01-12T13:55:20.662Z,10.96
2023-01-12T13:58:23.600Z,10.99
2023-01-12T14:01:28.924Z,11.00
2023-01-12T14:04:54.409Z,11.00
2023-01-12T14:08:10.101Z,10.89
2023-01-12T14:11:39.513Z,10.90
2023-01-12T14:15:14.948Z,10.87
2023-01-12T14:18:18.863Z,10.84
2023-01-12T14:21:25.760Z,10.79
2023-01-12T14:24:28.401Z,10.81
2023-01-12T14:27:31.006Z,10.80
2023-01-12T14:30:34.848Z,10.72
2023-01-12T14:33:40.951Z,10.69
2023-01-12T14:36:47.139Z,10.66
2023-01-12T14:39:52.074Z,10.63
2023-01-12T14:43:12.419Z,10.62
2023-01-12T14:46:26.735Z,10.60
2023-01-12T14:49:31.387Z,10.57
2023-01-12T14:52:35.640Z,10.58
2023-01-12T14:55:40.578Z,10.62
2023-01-12T14:58:44.442Z,10.68
2023-01-12T15:01:52.714Z,10.62
2023-01-12T15:04:58.942Z,10.62
2023-01-12T15:08:05.066Z,10.61
2023-01-12T15:11:10.159Z,10.63
2023-01-12T15:14:24.846Z,10.62
2023-01-12T15:17:44.954Z,10.71
2023-01-12T15:21:05.415Z,10.77
2023-01-12T15:24:39.365Z,10.67
2023-01-12T15:27:42.067Z,10.64
2023-01-12T15:30:44.780Z,10.67
2023-01-12T15:33:47.577Z,10.68
2023-01-12T15:36:50.626Z,10.68
2023-01-12T15:39:56.573Z,10.66
2023-01-12T15:42:59.848Z,10.67
2023-01-12T15:46:02.578Z,10.64
2023-01-12T15:49:05.736Z,10.62
2023-01-12T15:52:13.709Z,10.58
2023-01-12T15:55:19.888Z,10.54
2023-01-12T15:58:23.841Z,10.51
2023-01-12T16:01:33.930Z,10.49
2023-01-12T16:04:42.858Z,10.43
2023-01-12T16:07:48.585Z,10.42
2023-01-12T16:11:06.933Z,10.40
2023-01-12T16:14:09.996Z,10.33
2023-01-12T16:17:12.760Z,10.38
2023-01-12T16:20:17.494Z,10.41
2023-01-12T16:23:20.173Z,10.29
2023-01-12T16:26:24.980Z,10.31
2023-01-12T16:29:27.770Z,10.24
2023-01-12T16:32:30.584Z,10.19
2023-01-12T16:35:34.169Z,10.22
2023-01-12T16:38:37.461Z,10.20
2023-01-12T16:41:41.632Z,10.19
2023-01-12T16:44:44.350Z,10.17
2023-01-12T16:47:47.421Z,10.17
2023-01-12T16:50:50.358Z,10.13
2023-01-12T16:53:55.072Z,10.10
2023-01-12T16:56:59.285Z,10.15
2023-01-12T17:00:01.943Z,10.15
2023-01-12T17:03:07.726Z,10.14
2023-01-12T17:06:11.077Z,10.16
2023-01-12T17:09:14.500Z,10.20
2023-01-12T17:12:19.005Z,10.24
2023-01-12T17:15:21.961Z,10.26
2023-01-12T17:18:24.809Z,10.23
2023-01-12T17:21:27.665Z,10.21
2023-01-12T17:24:31.731Z,10.21
2023-01-12T17:27:36.143Z,10.23
2023-01-12T17:30:40.513Z,10.19
2023-01-12T17:33:43.388Z,10.22
2023-01-12T17:36:46.509Z,10.28
2023-01-12T17:39:51.084Z,10.26
2023-01-12T17:43:03.521Z,10.22
2023-01-12T17:46:08.677Z,10.26
2023-01-12T17:49:13.284Z,10.19
2023-01-12T17:52:16.172Z,10.17
2023-01-12T17:55:18.859Z,10.17
2023-01-12T17:58:22.930Z,10.16
2023-01-12T18:01:29.301Z,10.16
2023-01-12T18:04:32.456Z,10.17
2023-01-12T18:07:35.566Z,10.15
2023-01-12T18:10:38.658Z,10.16
2023-01-12T18:13:43.157Z,10.16
2023-01-12T18:16:46.372Z,10.21
2023-01-12T18:19:49.105Z,10.21
2023-01-12T18:22:54.680Z,10.22
2023-01-12T18:25:57.472Z,10.23
2023-01-12T18:29:03.005Z,10.28
2023-01-12T18:32:06.418Z,10.33
2023-01-12T18:35:10.145Z,10.38
2023-01-12T18:38:12.866Z,10.34
2023-01-12T18:41:33.081Z,10.40
2023-01-12T18:44:38.090Z,10.42
2023-01-12T18:47:58.463Z,10.37
2023-01-12T18:51:18.547Z,10.37
2023-01-12T18:54:21.190Z,10.42
2023-01-12T18:57:26.808Z,10.38
2023-01-12T19:00:30.848Z,10.39
2023-01-12T19:03:34.509Z,10.38
2023-01-12T19:06:43.919Z,10.43
2023-01-12T19:09:46.650Z,10.35
2023-01-12T19:12:49.364Z,10.36
2023-01-12T19:16:10.898Z,10.40
2023-01-12T19:19:13.659Z,10.43
2023-01-12T19:22:34.073Z,10.51
2023-01-12T19:26:09.100Z,10.43
2023-01-12T19:29:11.810Z,10.43
2023-01-12T19:32:16.026Z,10.47
2023-01-12T19:35:18.851Z,10.48
2023-01-12T19:38:21.829Z,10.39
2023-01-12T19:41:38.442Z,10.36
2023-01-12T19:44:41.065Z,10.38
2023-01-12T19:47:45.352Z,10.39
2023-01-12T19:50:48.497Z,10.41
2023-01-12T19:53:51.215Z,10.38
2023-01-12T19:56:54.090Z,10.35
2023-01-12T19:59:56.912Z,10.43
2023-01-12T20:03:01.020Z,10.44
2023-01-12T20:06:06.753Z,10.46
2023-01-12T20:09:09.616Z,10.49
2023-01-12T20:12:12.804Z,10.49
2023-01-12T20:15:15.595Z,10.47
2023-01-12T20:18:19.797Z,10.51
2023-01-12T20:21:22.611Z,10.55
2023-01-12T20:24:25.925Z,10.54
2023-01-12T20:27:28.696Z,10.53
2023-01-12T20:30:37.890Z,10.51
2023-01-12T20:33:42.919Z,10.51
2023-01-12T20:36:47.729Z,10.56
2023-01-12T20:39:53.171Z,10.55
2023-01-12T20:42:55.929Z,10.62
2023-01-12T20:45:58.913Z,10.62
2023-01-12T20:49:03.307Z,10.65
2023-01-12T20:52:06.004Z,10.61
2023-01-12T20:55:09.972Z,10.62
2023-01-12T20:58:12.951Z,10.60
2023-01-12T21:01:16.819Z,10.54
2023-01-12T21:04:20.983Z,10.60
2023-01-12T21:07:23.775Z,10.60
2023-01-12T21:10:26.454Z,10.65
2023-01-12T21:13:29.341Z,10.61
2023-01-12T21:16:33.704Z,10.64
2023-01-12T21:19:38.240Z,10.60
2023-01-12T21:22:42.665Z,10.60
2023-01-12T21:25:45.791Z,10.59
2023-01-12T21:28:48.643Z,10.60
2023-01-12T21:31:54.573Z,10.56
2023-01-12T21:34:58.820Z,10.52
2023-01-12T21:38:01.904Z,10.52
2023-01-12T21:41:06.150Z,10.46
2023-01-12T21:44:08.937Z,10.59
2023-01-12T21:47:11.710Z,10.64
2023-01-12T21:50:16.307Z,10.61
2023-01-12T21:54:32.850Z,10.55
2023-01-12T22:05:31.111Z,10.56
2023-01-12T22:09:03.391Z,10.64
2023-01-12T22:15:49.880Z,10.58
2023-01-12T22:19:04.344Z,10.61
2023-01-12T22:22:15.834Z,10.65
2023-01-12T22:25:24.857Z,10.66
2023-01-12T22:28:45.466Z,10.64
2023-01-12T22:32:09.357Z,10.62
2023-01-12T22:35:31.053Z,10.68
2023-01-12T22:39:14.446Z,10.65
2023-01-12T22:42:22.802Z,10.68
2023-01-12T22:45:42.693Z,10.72
2023-01-12T22:48:53.252Z,10.74
2023-01-12T22:52:00.746Z,10.69
2023-01-12T22:55:09.904Z,10.59
2023-01-12T22:58:16.365Z,10.58
2023-01-12T23:01:24.060Z,10.65
2023-01-12T23:04:40.525Z,10.67
2023-01-12T23:08:17.758Z,10.72
2023-01-12T23:23:58.386Z,10.71
2023-01-12T23:27:01.188Z,10.70
2023-01-12T23:30:04.148Z,10.65
2023-01-12T23:33:11.977Z,10.66
2023-01-12T23:36:16.239Z,10.68
2023-01-12T23:39:18.960Z,10.66
2023-01-12T23:42:22.230Z,10.73
2023-01-12T23:45:24.982Z,10.64
2023-01-12T23:48:29.560Z,10.64
2023-01-12T23:51:32.729Z,10.67
2023-01-12T23:54:36.682Z,10.65
2023-01-12T23:57:39.359Z,10.67
